createdAt,value
2019-03-25T00:01:39.778Z,12.48
2019-03-25T00:04:08.664Z,12.50
2019-03-25T00:06:37.734Z,12.47
2019-03-25T00:09:07.703Z,12.39
2019-03-25T00:11:38.032Z,12.34
2019-03-25T00:14:07.112Z,12.30
2019-03-25T00:16:36.183Z,12.29
2019-03-25T00:19:05.523Z,12.29
2019-03-25T00:21:34.409Z,12.32
2019-03-25T00:24:03.704Z,12.34
2019-03-25T00:26:32.619Z,12.37
2019-03-25T00:29:01.521Z,12.40
2019-03-25T00:31:30.457Z,12.42
2019-03-25T00:33:59.747Z,12.44
2019-03-25T00:36:28.864Z,12.46
2019-03-25T00:38:57.752Z,12.45
2019-03-25T00:41:28.291Z,12.45
2019-03-25T00:43:58.965Z,12.42
2019-03-25T00:46:27.889Z,12.40
2019-03-25T00:48:56.777Z,12.39
2019-03-25T00:51:27.591Z,12.34
2019-03-25T00:53:57.745Z,12.29
2019-03-25T00:56:26.639Z,12.26
2019-03-25T00:58:55.621Z,12.26
2019-03-25T01:01:25.814Z,12.32
2019-03-25T01:03:58.002Z,12.34
2019-03-25T01:06:26.935Z,12.36
2019-03-25T01:08:56.219Z,12.36
2019-03-25T01:11:25.156Z,12.38
2019-03-25T01:13:54.046Z,12.41
2019-03-25T01:16:23.575Z,12.43
2019-03-25T01:18:52.448Z,12.45
2019-03-25T01:21:21.690Z,12.48
2019-03-25T01:23:51.027Z,12.51
2019-03-25T01:26:19.944Z,12.52
2019-03-25T01:28:49.152Z,12.54
2019-03-25T01:31:18.305Z,12.55
2019-03-25T01:33:47.200Z,12.57
2019-03-25T01:36:16.172Z,12.58
2019-03-25T01:38:45.154Z,12.60
2019-03-25T01:41:15.473Z,12.60
2019-03-25T01:43:44.326Z,12.62
2019-03-25T01:46:13.528Z,12.63
2019-03-25T01:48:42.385Z,12.63
2019-03-25T01:51:11.304Z,12.64
2019-03-25T01:53:40.149Z,12.64
2019-03-25T01:56:09.335Z,12.65
2019-03-25T01:58:38.195Z,12.65
2019-03-25T02:01:08.917Z,12.64
2019-03-25T02:03:37.785Z,12.65
2019-03-25T02:06:08.509Z,12.64
2019-03-25T02:08:37.387Z,12.65
2019-03-25T02:11:07.543Z,12.65
2019-03-25T02:13:36.588Z,12.66
2019-03-25T02:16:05.577Z,12.65
2019-03-25T02:18:34.558Z,12.63
2019-03-25T02:21:05.067Z,12.63
2019-03-25T02:23:33.920Z,12.61
2019-03-25T02:26:02.882Z,12.60
2019-03-25T02:28:31.779Z,12.57
2019-03-25T02:31:00.749Z,12.56
2019-03-25T02:33:31.175Z,12.53
2019-03-25T02:36:00.110Z,12.51
2019-03-25T02:38:28.922Z,12.48
2019-03-25T02:40:58.205Z,12.46
2019-03-25T02:43:28.636Z,12.43
2019-03-25T02:45:58.681Z,12.39
2019-03-25T02:48:27.670Z,12.36
2019-03-25T02:50:56.760Z,12.32
2019-03-25T02:53:27.443Z,12.30
2019-03-25T02:55:56.417Z,12.26
2019-03-25T02:58:25.275Z,12.24
2019-03-25T04:48:40.000Z,10.06
2019-03-25T04:51:09.238Z,9.99
2019-03-25T04:53:38.248Z,9.93
2019-03-25T04:56:08.305Z,9.87
2019-03-25T04:58:37.366Z,9.77
2019-03-25T05:01:06.967Z,9.63
2019-03-25T05:03:36.228Z,9.55
2019-03-25T05:06:05.277Z,9.47
2019-03-25T05:08:35.691Z,9.39
2019-03-25T05:11:05.261Z,9.27
2019-03-25T05:13:34.570Z,9.19
2019-03-25T05:16:03.618Z,9.10
2019-03-25T05:18:32.575Z,9.07
2019-03-25T05:21:01.808Z,9.01
2019-03-25T05:23:30.968Z,8.97
2019-03-25T05:26:00.424Z,8.95
2019-03-25T05:28:29.445Z,8.95
2019-03-25T05:30:58.315Z,8.95
2019-03-25T05:33:27.235Z,8.93
2019-03-25T05:35:56.096Z,8.90
2019-03-25T05:38:25.078Z,8.88
2019-03-25T05:40:54.844Z,8.81
2019-03-25T05:43:23.753Z,8.74
2019-03-25T05:45:53.550Z,8.69
2019-03-25T05:48:22.841Z,8.64
2019-03-25T05:50:51.799Z,8.57
2019-03-25T05:53:20.770Z,8.49
2019-03-25T05:55:49.797Z,8.41
2019-03-25T05:58:18.723Z,8.37
2019-03-25T06:00:47.962Z,8.31
2019-03-25T06:03:16.873Z,8.27
2019-03-25T06:05:45.741Z,8.22
2019-03-25T06:08:14.969Z,8.16
2019-03-25T06:10:43.866Z,8.13
2019-03-25T06:13:12.771Z,8.14
2019-03-25T06:15:41.732Z,8.16
2019-03-25T06:18:11.262Z,8.20
2019-03-25T06:20:40.479Z,8.24
2019-03-25T06:23:09.750Z,8.23
2019-03-25T06:25:38.637Z,8.27
2019-03-25T06:28:09.744Z,8.30
2019-03-25T06:30:38.645Z,8.35
2019-03-25T06:33:12.455Z,8.38
2019-03-25T06:35:38.475Z,8.42
2019-03-25T06:38:08.647Z,8.46
2019-03-25T06:40:38.260Z,8.51
2019-03-25T06:43:07.211Z,8.56
2019-03-25T06:45:36.226Z,8.59
2019-03-25T06:48:09.153Z,8.64
2019-03-25T06:50:38.042Z,8.67
2019-03-25T06:53:07.014Z,8.74
2019-03-25T06:55:35.904Z,8.80
2019-03-25T06:58:04.836Z,8.87
2019-03-25T07:00:33.766Z,8.93
2019-03-25T07:03:03.078Z,8.99
2019-03-25T07:05:33.429Z,9.07
2019-03-25T07:08:02.325Z,9.14
2019-03-25T07:10:33.826Z,9.23
2019-03-25T07:13:03.348Z,9.29
2019-03-25T07:15:32.737Z,9.35
2019-03-25T07:18:03.966Z,9.39
2019-03-25T07:20:32.875Z,9.42
2019-03-25T07:23:01.901Z,9.45
2019-03-25T07:25:30.888Z,9.51
2019-03-25T07:27:59.903Z,9.56
2019-03-25T07:30:29.922Z,9.64
2019-03-25T07:32:58.817Z,9.71
2019-03-25T07:35:29.889Z,9.80
2019-03-25T07:38:00.788Z,9.88
2019-03-25T07:40:30.077Z,9.98
2019-03-25T07:42:59.301Z,10.09
2019-03-25T07:45:28.205Z,10.19
2019-03-25T07:47:57.106Z,10.30
2019-03-25T07:50:26.019Z,10.39
2019-03-25T07:52:54.927Z,10.52
2019-03-25T07:55:24.016Z,10.67
2019-03-25T07:57:52.950Z,10.81
2019-03-25T08:00:22.714Z,10.96
2019-03-25T08:02:51.609Z,11.12
2019-03-25T08:05:20.562Z,11.22
2019-03-25T08:07:49.476Z,11.37
2019-03-25T08:10:34.535Z,11.58
2019-03-25T08:13:03.841Z,11.84
2019-03-25T08:15:33.249Z,12.18
2019-03-25T08:18:03.063Z,12.45
2019-03-25T08:20:31.985Z,12.67
2019-03-25T08:23:00.909Z,12.84
2019-03-25T08:25:29.984Z,13.06
2019-03-25T08:28:00.317Z,13.26
2019-03-25T08:30:29.627Z,13.44
2019-03-25T08:32:58.646Z,13.62
2019-03-25T08:35:27.557Z,13.72
2019-03-25T08:37:56.506Z,13.79
2019-03-25T08:40:25.463Z,13.78
2019-03-25T08:42:54.483Z,13.81
2019-03-25T08:45:23.627Z,13.78
2019-03-25T08:47:52.670Z,13.74
2019-03-25T08:50:21.639Z,13.75
2019-03-25T08:52:50.655Z,13.76
2019-03-25T08:55:19.639Z,13.77
2019-03-25T08:57:50.925Z,13.77
2019-03-25T09:00:20.085Z,13.74
2019-03-25T09:02:49.281Z,13.72
2019-03-25T09:05:18.268Z,13.70
2019-03-25T09:07:47.306Z,13.68
2019-03-25T09:10:16.597Z,13.64
2019-03-25T09:12:45.706Z,13.60
2019-03-25T09:15:15.019Z,13.53
2019-03-25T09:17:43.945Z,13.50
2019-03-25T09:20:14.089Z,13.49
2019-03-25T09:22:42.979Z,13.50
2019-03-25T09:25:12.517Z,13.50
2019-03-25T09:27:41.957Z,13.51
2019-03-25T09:30:14.235Z,13.51
2019-03-25T09:32:43.174Z,13.54
2019-03-25T09:35:12.890Z,13.59
2019-03-25T09:37:41.882Z,13.64
2019-03-25T09:40:12.725Z,13.70
2019-03-25T09:42:41.857Z,13.76
2019-03-25T09:45:17.382Z,13.82
2019-03-25T09:47:47.499Z,13.88
2019-03-25T09:50:17.556Z,13.97
2019-03-25T09:52:46.470Z,14.05
2019-03-25T09:55:16.681Z,14.13
2019-03-25T09:57:45.808Z,14.19
2019-03-25T10:00:15.189Z,14.25
2019-03-25T10:02:44.249Z,14.32
2019-03-25T10:05:13.122Z,14.40
2019-03-25T10:07:43.952Z,14.50
2019-03-25T10:10:14.468Z,14.61
2019-03-25T10:12:43.376Z,14.74
2019-03-25T10:15:14.388Z,14.84
2019-03-25T10:17:45.746Z,14.96
2019-03-25T10:20:14.881Z,15.12
2019-03-25T10:22:43.830Z,15.27
2019-03-25T10:25:14.213Z,15.40
2019-03-25T10:27:43.243Z,15.54
2019-03-25T10:30:15.494Z,15.62
2019-03-25T10:32:44.505Z,15.67
2019-03-25T10:35:15.103Z,15.71
2019-03-25T10:37:45.111Z,15.76
2019-03-25T10:40:14.252Z,15.78
2019-03-25T10:42:43.281Z,15.82
2019-03-25T10:45:13.506Z,15.83
2019-03-25T10:47:45.599Z,15.89
2019-03-25T10:50:14.718Z,16.00
2019-03-25T10:52:43.872Z,16.11
2019-03-25T10:55:13.070Z,16.23
2019-03-25T10:57:42.136Z,16.34
2019-03-25T11:00:13.186Z,16.52
2019-03-25T11:02:42.216Z,16.74
2019-03-25T11:05:12.115Z,17.02
2019-03-25T11:10:11.740Z,17.72
2019-03-25T11:12:41.860Z,18.08
2019-03-25T11:15:11.310Z,18.42
2019-03-25T11:17:40.214Z,18.66
2019-03-25T11:20:11.599Z,18.88
2019-03-25T11:22:40.521Z,19.13
2019-03-25T11:25:10.777Z,19.35
2019-03-25T11:27:39.834Z,19.54
2019-03-25T11:30:09.509Z,19.69
2019-03-25T11:32:38.462Z,19.70
2019-03-25T11:35:10.211Z,19.74
2019-03-25T11:37:40.637Z,19.71
2019-03-25T11:40:12.151Z,19.68
2019-03-25T11:42:41.107Z,19.68
2019-03-25T11:45:12.281Z,19.73
2019-03-25T11:47:41.666Z,19.86
2019-03-25T11:50:12.082Z,20.06
2019-03-25T11:52:42.204Z,20.20
2019-03-25T11:55:13.611Z,20.18
2019-03-25T11:57:42.682Z,20.09
2019-03-25T12:00:13.371Z,19.95
2019-03-25T12:02:43.072Z,19.85
2019-03-25T12:05:12.292Z,19.69
2019-03-25T12:07:41.212Z,19.53
2019-03-25T12:10:11.653Z,19.43
2019-03-25T12:12:40.610Z,19.29
2019-03-25T12:15:10.721Z,19.16
2019-03-25T12:17:39.600Z,18.99
2019-03-25T12:20:09.199Z,18.81
2019-03-25T12:22:38.322Z,18.65
2019-03-25T12:25:07.921Z,18.47
2019-03-25T12:27:38.318Z,18.33
2019-03-25T12:30:08.975Z,18.21
2019-03-25T12:32:37.865Z,18.10
2019-03-25T12:35:07.005Z,18.06
2019-03-25T12:37:37.901Z,18.04
2019-03-25T12:40:08.008Z,18.04
2019-03-25T12:42:37.114Z,18.03
2019-03-25T12:45:07.878Z,18.03
2019-03-25T12:47:36.757Z,18.02
2019-03-25T12:50:07.568Z,17.98
2019-03-25T12:52:36.660Z,17.88
2019-03-25T12:55:06.055Z,17.74
2019-03-25T12:57:35.387Z,17.68
2019-03-25T13:00:05.697Z,17.72
2019-03-25T13:02:35.067Z,17.86
2019-03-25T13:05:04.324Z,18.01
2019-03-25T13:07:33.363Z,18.15
2019-03-25T13:10:02.518Z,18.30
2019-03-25T13:12:31.420Z,18.44
2019-03-25T13:15:00.705Z,18.61
2019-03-25T13:17:30.967Z,18.71
2019-03-25T13:19:59.909Z,18.75
2019-03-25T13:22:28.784Z,18.64
2019-03-25T13:24:57.705Z,18.50
2019-03-25T13:27:26.598Z,18.37
2019-03-25T13:29:55.874Z,18.33
2019-03-25T13:32:24.868Z,18.32
2019-03-25T13:34:54.822Z,18.41
2019-03-25T13:37:24.151Z,18.57
2019-03-25T13:39:53.070Z,18.71
2019-03-25T13:42:22.309Z,18.91
2019-03-25T13:44:51.451Z,19.15
2019-03-25T13:47:20.419Z,19.35
2019-03-25T13:49:49.451Z,19.51
2019-03-25T13:52:18.316Z,19.58
2019-03-25T13:54:48.538Z,19.55
2019-03-25T13:57:17.530Z,19.48
2019-03-25T13:59:46.474Z,19.41
2019-03-25T14:02:16.452Z,19.37
2019-03-25T14:04:45.422Z,19.42
2019-03-25T14:07:14.432Z,19.45
2019-03-25T14:09:43.461Z,19.47
2019-03-25T14:12:13.870Z,19.45
2019-03-25T14:14:44.182Z,19.40
2019-03-25T14:17:13.189Z,19.35
2019-03-25T14:19:42.133Z,19.40
2019-03-25T14:22:11.127Z,19.54
2019-03-25T14:24:40.199Z,19.70
2019-03-25T14:27:09.476Z,19.81
2019-03-25T14:29:38.416Z,19.82
2019-03-25T14:32:07.480Z,19.76
2019-03-25T14:34:44.432Z,19.62
2019-03-25T14:37:07.617Z,19.35
2019-03-25T14:39:36.578Z,19.06
2019-03-25T14:42:05.637Z,18.76
2019-03-25T14:44:34.937Z,18.40
2019-03-25T14:47:03.803Z,18.08
2019-03-25T14:49:32.775Z,17.81
2019-03-25T14:52:01.663Z,17.62
2019-03-25T14:54:30.825Z,17.46
2019-03-25T14:56:59.722Z,17.35
2019-03-25T14:59:28.631Z,17.26
2019-03-25T15:01:57.547Z,17.15
2019-03-25T15:04:26.467Z,17.06
2019-03-25T15:06:55.337Z,16.96
2019-03-25T15:09:24.250Z,16.87
2019-03-25T15:11:53.158Z,16.83
2019-03-25T15:14:22.595Z,16.79
2019-03-25T15:16:52.185Z,16.76
2019-03-25T15:19:21.078Z,16.76
2019-03-25T15:21:50.960Z,16.57
2019-03-25T15:24:19.861Z,16.48
2019-03-25T15:26:48.841Z,16.41
2019-03-25T15:29:19.546Z,16.26
2019-03-25T15:31:48.469Z,16.14
2019-03-25T15:34:17.668Z,16.05
2019-03-25T15:36:46.559Z,15.97
2019-03-25T15:39:15.539Z,15.87
2019-03-25T15:41:44.449Z,15.74
2019-03-25T15:44:14.777Z,15.61
2019-03-25T15:46:43.712Z,15.50
2019-03-25T15:49:12.564Z,15.38
2019-03-25T15:51:43.992Z,15.27
2019-03-25T15:54:14.705Z,15.16
2019-03-25T15:56:44.050Z,15.04
2019-03-25T15:59:12.901Z,14.91
2019-03-25T16:01:43.614Z,14.77
2019-03-25T16:04:12.564Z,14.63
2019-03-25T16:06:41.435Z,14.47
2019-03-25T16:09:11.593Z,14.34
2019-03-25T16:11:40.792Z,14.21
2019-03-25T16:14:09.660Z,14.09
2019-03-25T16:16:40.187Z,13.95
2019-03-25T16:19:09.482Z,13.83
2019-03-25T16:21:38.588Z,13.72
2019-03-25T16:24:07.498Z,13.62
2019-03-25T16:26:36.523Z,13.54
2019-03-25T16:29:05.761Z,13.48
2019-03-25T16:31:34.746Z,13.41
2019-03-25T16:34:04.045Z,13.35
2019-03-25T16:36:33.014Z,13.31
2019-03-25T16:39:03.523Z,13.28
2019-03-25T16:41:36.991Z,13.24
2019-03-25T16:44:07.659Z,13.19
2019-03-25T16:46:36.789Z,13.15
2019-03-25T16:49:07.321Z,13.10
2019-03-25T16:51:36.449Z,13.05
2019-03-25T16:54:05.374Z,13.01
2019-03-25T16:56:34.687Z,12.99
2019-03-25T16:59:03.868Z,12.96
2019-03-25T17:01:32.771Z,12.93
2019-03-25T17:04:03.425Z,12.91
2019-03-25T17:06:33.525Z,12.88
2019-03-25T17:09:05.078Z,12.87
2019-03-25T17:11:34.608Z,12.87
2019-03-25T17:14:04.717Z,12.86
2019-03-25T17:16:33.950Z,12.87
2019-03-25T17:19:03.081Z,12.85
2019-03-25T17:21:32.028Z,12.84
2019-03-25T17:24:01.093Z,12.83
2019-03-25T17:26:42.023Z,12.81
2019-03-25T17:29:04.001Z,12.77
2019-03-25T17:31:33.027Z,12.75
2019-03-25T17:34:02.152Z,12.74
2019-03-25T17:36:31.132Z,12.70
2019-03-25T17:39:00.103Z,12.66
2019-03-25T17:41:29.419Z,12.56
2019-03-25T17:43:58.366Z,12.46
2019-03-25T17:46:27.277Z,12.37
2019-03-25T17:48:57.329Z,12.30
2019-03-25T17:51:26.315Z,12.21
2019-03-25T17:53:55.209Z,12.15
2019-03-25T17:56:24.297Z,12.08
2019-03-25T17:58:53.188Z,11.96
2019-03-25T18:01:33.858Z,11.82
2019-03-25T18:04:03.061Z,11.70
2019-03-25T18:06:32.008Z,11.54
2019-03-25T18:09:01.055Z,11.39
2019-03-25T18:11:30.435Z,11.21
2019-03-25T18:13:59.786Z,11.11
2019-03-25T18:16:28.964Z,11.01
2019-03-25T18:18:58.965Z,10.92
2019-03-25T18:21:28.025Z,10.86
2019-03-25T18:23:57.098Z,10.80
2019-03-25T18:26:26.039Z,10.76
2019-03-25T18:28:54.982Z,10.73
2019-03-25T18:31:23.925Z,10.66
2019-03-25T18:33:53.293Z,10.62
2019-03-25T18:36:22.522Z,10.56
2019-03-25T18:38:51.699Z,10.54
2019-03-25T18:41:20.684Z,10.51
2019-03-25T18:43:50.085Z,10.49
2019-03-25T18:46:22.168Z,10.46
2019-03-25T18:48:51.668Z,10.41
2019-03-25T18:51:20.638Z,10.39
2019-03-25T18:53:49.602Z,10.37
2019-03-25T18:56:19.603Z,10.36
2019-03-25T18:58:48.527Z,10.32
2019-03-25T19:01:18.631Z,10.27
2019-03-25T19:03:47.618Z,10.23
2019-03-25T19:06:18.447Z,10.19
2019-03-25T19:08:48.236Z,10.13
2019-03-25T19:11:17.257Z,10.07
2019-03-25T19:13:46.628Z,10.03
2019-03-25T19:16:17.005Z,9.96
2019-03-25T19:18:46.337Z,9.93
2019-03-25T19:21:15.288Z,9.92
2019-03-25T19:23:44.197Z,9.93
2019-03-25T19:26:13.620Z,9.92
2019-03-25T19:28:42.627Z,9.88
2019-03-25T19:31:11.489Z,9.85
2019-03-25T19:33:40.716Z,9.79
2019-03-25T19:36:09.728Z,9.73
2019-03-25T19:38:38.796Z,9.69
2019-03-25T19:41:09.246Z,9.68
2019-03-25T19:43:38.249Z,9.69
2019-03-25T19:46:07.190Z,9.69
2019-03-25T19:48:36.506Z,9.69
2019-03-25T19:51:05.403Z,9.70
2019-03-25T19:53:34.354Z,9.72
2019-03-25T19:56:03.578Z,9.72
2019-03-25T19:58:32.627Z,9.73
2019-03-25T20:01:01.580Z,9.74
2019-03-25T20:03:32.834Z,9.76
2019-03-25T20:06:01.502Z,9.78
2019-03-25T20:08:30.791Z,9.78
2019-03-25T20:11:00.109Z,9.76
2019-03-25T20:13:29.264Z,9.75
2019-03-25T20:15:58.214Z,9.73
2019-03-25T20:18:27.559Z,9.71
2019-03-25T20:20:56.536Z,9.65
2019-03-25T20:23:25.415Z,9.58
2019-03-25T20:25:54.360Z,9.53
2019-03-25T20:28:23.395Z,9.48
2019-03-25T20:30:52.453Z,9.44
2019-03-25T20:33:21.550Z,9.40
2019-03-25T20:35:50.655Z,9.39
2019-03-25T20:38:20.629Z,9.36
2019-03-25T20:40:49.722Z,9.34
2019-03-25T20:43:18.987Z,9.32
2019-03-25T20:45:47.933Z,9.32
2019-03-25T20:48:17.186Z,9.32
2019-03-25T20:50:48.419Z,9.29
2019-03-25T20:53:17.745Z,9.27
2019-03-25T20:55:48.268Z,9.24
2019-03-25T20:58:19.800Z,9.21
2019-03-25T21:00:54.691Z,9.19
2019-03-25T21:03:23.756Z,9.17
2019-03-25T21:05:52.797Z,9.15
2019-03-25T21:08:22.274Z,9.13
2019-03-25T21:10:52.232Z,9.12
2019-03-25T21:13:21.265Z,9.11
2019-03-25T21:15:50.258Z,9.11
2019-03-25T21:18:21.149Z,9.11
2019-03-25T21:20:50.230Z,9.10
2019-03-25T21:23:19.206Z,9.09
2019-03-25T21:25:48.136Z,9.07
2019-03-25T21:28:17.023Z,9.07
2019-03-25T21:30:48.138Z,9.05
2019-03-25T21:33:18.720Z,9.06
2019-03-25T21:35:48.521Z,9.04
2019-03-25T21:38:17.566Z,9.04
2019-03-25T21:40:46.894Z,9.06
2019-03-25T21:43:16.068Z,9.06
2019-03-25T21:45:45.059Z,9.06
2019-03-25T21:48:14.291Z,9.07
2019-03-25T21:50:43.268Z,9.07
2019-03-25T21:53:13.791Z,9.08
2019-03-25T21:55:44.138Z,9.07
2019-03-25T21:58:13.041Z,9.08
2019-03-25T22:00:42.156Z,9.08
2019-03-25T22:03:12.531Z,9.07
2019-03-25T22:05:41.613Z,9.07
2019-03-25T22:08:10.533Z,9.07
2019-03-25T22:10:42.762Z,9.07
2019-03-25T22:13:10.591Z,9.07
2019-03-25T22:15:39.552Z,9.09
2019-03-25T22:18:08.591Z,9.08
2019-03-25T22:20:37.501Z,9.08
2019-03-25T22:23:06.517Z,9.10
2019-03-25T22:25:35.513Z,9.10
2019-03-25T22:28:05.166Z,9.09
2019-03-25T22:30:34.177Z,9.10
2019-03-25T22:33:03.095Z,9.09
2019-03-25T22:35:32.046Z,9.09
2019-03-25T22:38:01.171Z,9.08
2019-03-25T22:40:30.142Z,9.07
2019-03-25T22:42:59.062Z,9.08
2019-03-25T22:45:30.642Z,9.07
2019-03-25T22:47:59.919Z,9.10
2019-03-25T22:50:30.901Z,9.08
2019-03-25T22:53:00.374Z,9.08
2019-03-25T22:55:29.572Z,9.09
2019-03-25T22:57:58.593Z,9.09
2019-03-25T23:00:38.709Z,9.10
2019-03-25T23:03:09.106Z,9.10
2019-03-25T23:05:38.074Z,9.09
2019-03-25T23:08:07.324Z,9.09
2019-03-25T23:10:36.644Z,9.08
2019-03-25T23:13:05.579Z,9.10
2019-03-25T23:15:34.494Z,9.08
2019-03-25T23:18:05.655Z,9.09
2019-03-25T23:20:35.066Z,9.08
2019-03-25T23:23:04.140Z,9.09
2019-03-25T23:25:33.455Z,9.07
2019-03-25T23:28:02.533Z,9.07
2019-03-25T23:30:31.382Z,9.06
2019-03-25T23:33:00.605Z,9.04
2019-03-25T23:35:29.526Z,9.05
2019-03-25T23:38:00.015Z,9.04
2019-03-25T23:40:28.881Z,9.03
2019-03-25T23:42:57.875Z,9.05
2019-03-25T23:45:26.776Z,9.04
2019-03-25T23:47:55.684Z,9.03
2019-03-25T23:50:24.579Z,9.01
2019-03-25T23:52:53.851Z,8.99
2019-03-25T23:55:23.661Z,8.97
2019-03-25T23:57:52.594Z,8.94
